sensor_id;sensor_type;location;lat;lon;timestamp;temperature;humidity
30288;DHT22;17103;48.316;11.558;2023-04-25T00:02:03;14.70;38.70
30288;DHT22;17103;48.316;11.558;2023-04-25T00:04:28;14.70;39.30
30288;DHT22;17103;48.316;11.558;2023-04-25T00:06:55;14.70;38.70
30288;DHT22;17103;48.316;11.558;2023-04-25T00:09:21;14.70;38.80
30288;DHT22;17103;48.316;11.558;2023-04-25T00:11:47;14.70;38.80
30288;DHT22;17103;48.316;11.558;2023-04-25T00:14:13;14.70;38.80
30288;DHT22;17103;48.316;11.558;2023-04-25T00:16:39;14.70;38.90
30288;DHT22;17103;48.316;11.558;2023-04-25T00:19:06;14.90;39.10
30288;DHT22;17103;48.316;11.558;2023-04-25T00:21:32;14.70;39.00
30288;DHT22;17103;48.316;11.558;2023-04-25T00:23:59;14.60;39.00
30288;DHT22;17103;48.316;11.558;2023-04-25T00:26:25;14.60;39.10
30288;DHT22;17103;48.316;11.558;2023-04-25T00:28:51;14.60;39.10
30288;DHT22;17103;48.316;11.558;2023-04-25T00:31:17;14.60;39.10
30288;DHT22;17103;48.316;11.558;2023-04-25T00:33:42;14.50;39.00
30288;DHT22;17103;48.316;11.558;2023-04-25T00:36:08;14.50;39.10
30288;DHT22;17103;48.316;11.558;2023-04-25T00:38:34;14.40;39.00
30288;DHT22;17103;48.316;11.558;2023-04-25T00:41:00;14.40;39.20
30288;DHT22;17103;48.316;11.558;2023-04-25T00:43:30;14.30;39.20
30288;DHT22;17103;48.316;11.558;2023-04-25T00:46:00;14.20;39.30
30288;DHT22;17103;48.316;11.558;2023-04-25T00:48:26;14.10;39.50
30288;DHT22;17103;48.316;11.558;2023-04-25T00:50:53;14.10;39.50
30288;DHT22;17103;48.316;11.558;2023-04-25T00:53:21;14.10;39.80
30288;DHT22;17103;48.316;11.558;2023-04-25T00:55:47;14.00;39.90
30288;DHT22;17103;48.316;11.558;2023-04-25T00:58:17;14.00;40.10
30288;DHT22;17103;48.316;11.558;2023-04-25T01:00:47;14.30;40.50
30288;DHT22;17103;48.316;11.558;2023-04-25T01:03:14;14.00;40.20
30288;DHT22;17103;48.316;11.558;2023-04-25T01:05:43;14.00;40.20
30288;DHT22;17103;48.316;11.558;2023-04-25T01:08:09;14.00;40.20
30288;DHT22;17103;48.316;11.558;2023-04-25T01:10:35;14.00;40.20
30288;DHT22;17103;48.316;11.558;2023-04-25T01:13:02;14.00;40.10
30288;DHT22;17103;48.316;11.558;2023-04-25T01:15:27;14.10;40.20
30288;DHT22;17103;48.316;11.558;2023-04-25T01:17:54;14.10;40.20
30288;DHT22;17103;48.316;11.558;2023-04-25T01:20:24;14.10;40.10
30288;DHT22;17103;48.316;11.558;2023-04-25T01:22:53;14.10;40.30
30288;DHT22;17103;48.316;11.558;2023-04-25T01:25:20;14.10;40.20
30288;DHT22;17103;48.316;11.558;2023-04-25T01:27:46;14.20;40.20
30288;DHT22;17103;48.316;11.558;2023-04-25T01:30:13;14.20;40.20
30288;DHT22;17103;48.316;11.558;2023-04-25T01:32:38;14.20;40.70
30288;DHT22;17103;48.316;11.558;2023-04-25T01:35:10;14.20;40.10
30288;DHT22;17103;48.316;11.558;2023-04-25T01:37:43;14.20;40.10
30288;DHT22;17103;48.316;11.558;2023-04-25T01:40:10;14.20;40.10
30288;DHT22;17103;48.316;11.558;2023-04-25T01:42:38;14.30;40.00
30288;DHT22;17103;48.316;11.558;2023-04-25T01:45:05;14.20;40.00
30288;DHT22;17103;48.316;11.558;2023-04-25T01:47:31;14.20;40.10
30288;DHT22;17103;48.316;11.558;2023-04-25T01:49:57;14.30;40.10
30288;DHT22;17103;48.316;11.558;2023-04-25T01:52:23;14.30;40.10
30288;DHT22;17103;48.316;11.558;2023-04-25T01:54:49;14.40;40.20
30288;DHT22;17103;48.316;11.558;2023-04-25T01:57:16;14.30;40.00
30288;DHT22;17103;48.316;11.558;2023-04-25T01:59:42;14.40;39.90
30288;DHT22;17103;48.316;11.558;2023-04-25T02:02:08;14.30;39.80
30288;DHT22;17103;48.316;11.558;2023-04-25T02:04:33;14.20;39.80
30288;DHT22;17103;48.316;11.558;2023-04-25T02:06:59;14.30;40.00
30288;DHT22;17103;48.316;11.558;2023-04-25T02:09:25;14.30;40.00
30288;DHT22;17103;48.316;11.558;2023-04-25T02:11:50;14.40;40.00
30288;DHT22;17103;48.316;11.558;2023-04-25T02:14:16;14.30;40.30
30288;DHT22;17103;48.316;11.558;2023-04-25T02:16:42;14.30;39.80
30288;DHT22;17103;48.316;11.558;2023-04-25T02:19:09;14.40;39.90
30288;DHT22;17103;48.316;11.558;2023-04-25T02:21:35;14.30;39.90
30288;DHT22;17103;48.316;11.558;2023-04-25T02:24:02;14.30;39.90
30288;DHT22;17103;48.316;11.558;2023-04-25T02:26:28;14.30;39.90
30288;DHT22;17103;48.316;11.558;2023-04-25T02:28:53;14.30;39.80
30288;DHT22;17103;48.316;11.558;2023-04-25T02:31:19;14.30;39.80
30288;DHT22;17103;48.316;11.558;2023-04-25T02:33:45;14.30;39.80
30288;DHT22;17103;48.316;11.558;2023-04-25T02:36:11;14.60;40.00
30288;DHT22;17103;48.316;11.558;2023-04-25T02:38:36;14.20;39.70
30288;DHT22;17103;48.316;11.558;2023-04-25T02:41:02;14.20;39.80
30288;DHT22;17103;48.316;11.558;2023-04-25T02:43:28;14.20;39.70
30288;DHT22;17103;48.316;11.558;2023-04-25T02:45:53;14.20;39.90
30288;DHT22;17103;48.316;11.558;2023-04-25T02:48:19;14.10;39.90
30288;DHT22;17103;48.316;11.558;2023-04-25T02:50:45;14.10;39.90
30288;DHT22;17103;48.316;11.558;2023-04-25T02:53:10;14.10;39.90
30288;DHT22;17103;48.316;11.558;2023-04-25T02:55:36;14.10;40.00
30288;DHT22;17103;48.316;11.558;2023-04-25T02:58:02;14.10;40.00
30288;DHT22;17103;48.316;11.558;2023-04-25T03:00:27;14.00;40.10
30288;DHT22;17103;48.316;11.558;2023-04-25T03:02:53;14.00;39.80
30288;DHT22;17103;48.316;11.558;2023-04-25T03:05:19;14.00;39.80
30288;DHT22;17103;48.316;11.558;2023-04-25T03:07:44;13.90;39.70
30288;DHT22;17103;48.316;11.558;2023-04-25T03:10:12;13.80;39.70
30288;DHT22;17103;48.316;11.558;2023-04-25T03:12:37;13.70;40.00
30288;DHT22;17103;48.316;11.558;2023-04-25T03:15:05;13.70;40.10
30288;DHT22;17103;48.316;11.558;2023-04-25T03:17:31;13.60;40.10
30288;DHT22;17103;48.316;11.558;2023-04-25T03:19:57;13.50;40.30
30288;DHT22;17103;48.316;11.558;2023-04-25T03:22:23;13.40;40.10
30288;DHT22;17103;48.316;11.558;2023-04-25T03:24:50;13.40;40.60
30288;DHT22;17103;48.316;11.558;2023-04-25T03:27:16;13.20;40.50
30288;DHT22;17103;48.316;11.558;2023-04-25T03:29:42;13.10;40.90
30288;DHT22;17103;48.316;11.558;2023-04-25T03:32:07;13.00;40.90
30288;DHT22;17103;48.316;11.558;2023-04-25T03:34:33;12.90;41.30
30288;DHT22;17103;48.316;11.558;2023-04-25T03:36:59;12.80;41.60
30288;DHT22;17103;48.316;11.558;2023-04-25T03:39:25;12.70;42.10
30288;DHT22;17103;48.316;11.558;2023-04-25T03:41:51;12.70;42.30
30288;DHT22;17103;48.316;11.558;2023-04-25T03:44:16;12.70;42.10
30288;DHT22;17103;48.316;11.558;2023-04-25T03:46:42;12.70;41.90
30288;DHT22;17103;48.316;11.558;2023-04-25T03:49:07;12.70;42.00
30288;DHT22;17103;48.316;11.558;2023-04-25T03:51:33;12.70;41.80
30288;DHT22;17103;48.316;11.558;2023-04-25T03:53:59;12.70;42.40
30288;DHT22;17103;48.316;11.558;2023-04-25T03:56:24;12.70;41.70
30288;DHT22;17103;48.316;11.558;2023-04-25T03:58:50;12.70;42.10
30288;DHT22;17103;48.316;11.558;2023-04-25T04:01:15;12.70;42.30
30288;DHT22;17103;48.316;11.558;2023-04-25T04:03:41;12.70;41.90
30288;DHT22;17103;48.316;11.558;2023-04-25T04:06:07;12.70;42.20
30288;DHT22;17103;48.316;11.558;2023-04-25T04:08:34;12.70;42.40
30288;DHT22;17103;48.316;11.558;2023-04-25T04:11:01;12.70;42.50
30288;DHT22;17103;48.316;11.558;2023-04-25T04:13:28;12.70;42.50
30288;DHT22;17103;48.316;11.558;2023-04-25T04:15:58;12.70;42.60
30288;DHT22;17103;48.316;11.558;2023-04-25T04:18:24;12.80;42.80
30288;DHT22;17103;48.316;11.558;2023-04-25T04:20:49;12.90;42.60
30288;DHT22;17103;48.316;11.558;2023-04-25T04:23:15;12.90;42.10
30288;DHT22;17103;48.316;11.558;2023-04-25T04:25:40;12.90;42.30
30288;DHT22;17103;48.316;11.558;2023-04-25T04:28:07;12.90;42.00
30288;DHT22;17103;48.316;11.558;2023-04-25T04:30:33;12.80;41.70
30288;DHT22;17103;48.316;11.558;2023-04-25T04:33:02;12.80;41.70
30288;DHT22;17103;48.316;11.558;2023-04-25T04:35:28;12.70;41.90
30288;DHT22;17103;48.316;11.558;2023-04-25T04:37:54;12.70;42.00
30288;DHT22;17103;48.316;11.558;2023-04-25T04:40:21;12.60;42.00
30288;DHT22;17103;48.316;11.558;2023-04-25T04:42:47;12.50;42.00
30288;DHT22;17103;48.316;11.558;2023-04-25T04:45:14;12.40;41.90
30288;DHT22;17103;48.316;11.558;2023-04-25T04:47:40;12.30;41.90
30288;DHT22;17103;48.316;11.558;2023-04-25T04:50:10;12.30;42.20
30288;DHT22;17103;48.316;11.558;2023-04-25T04:52:36;12.30;42.20
30288;DHT22;17103;48.316;11.558;2023-04-25T04:55:03;12.30;42.20
30288;DHT22;17103;48.316;11.558;2023-04-25T04:57:29;12.30;42.30
30288;DHT22;17103;48.316;11.558;2023-04-25T04:59:55;12.30;42.50
30288;DHT22;17103;48.316;11.558;2023-04-25T05:02:20;12.30;42.50
30288;DHT22;17103;48.316;11.558;2023-04-25T05:04:46;12.20;42.70
30288;DHT22;17103;48.316;11.558;2023-04-25T05:07:12;12.20;42.80
30288;DHT22;17103;48.316;11.558;2023-04-25T05:09:39;12.20;42.70
30288;DHT22;17103;48.316;11.558;2023-04-25T05:12:05;12.20;43.20
30288;DHT22;17103;48.316;11.558;2023-04-25T05:14:31;12.20;43.20
30288;DHT22;17103;48.316;11.558;2023-04-25T05:16:57;12.30;43.50
30288;DHT22;17103;48.316;11.558;2023-04-25T05:19:23;12.30;43.50
30288;DHT22;17103;48.316;11.558;2023-04-25T05:21:50;12.30;43.40
30288;DHT22;17103;48.316;11.558;2023-04-25T05:24:16;12.40;43.60
30288;DHT22;17103;48.316;11.558;2023-04-25T05:26:41;12.40;43.70
30288;DHT22;17103;48.316;11.558;2023-04-25T05:29:07;12.50;43.60
30288;DHT22;17103;48.316;11.558;2023-04-25T05:31:34;12.60;43.20
30288;DHT22;17103;48.316;11.558;2023-04-25T05:34:00;12.70;43.60
30288;DHT22;17103;48.316;11.558;2023-04-25T05:36:26;12.70;43.50
30288;DHT22;17103;48.316;11.558;2023-04-25T05:38:52;12.70;43.40
30288;DHT22;17103;48.316;11.558;2023-04-25T05:41:18;12.80;43.40
30288;DHT22;17103;48.316;11.558;2023-04-25T05:43:43;12.90;43.30
30288;DHT22;17103;48.316;11.558;2023-04-25T05:46:12;12.90;43.30
30288;DHT22;17103;48.316;11.558;2023-04-25T05:48:39;12.90;43.20
30288;DHT22;17103;48.316;11.558;2023-04-25T05:51:05;13.00;43.30
30288;DHT22;17103;48.316;11.558;2023-04-25T05:53:30;13.00;42.90
30288;DHT22;17103;48.316;11.558;2023-04-25T05:55:56;12.90;42.80
30288;DHT22;17103;48.316;11.558;2023-04-25T05:58:22;12.90;43.00
30288;DHT22;17103;48.316;11.558;2023-04-25T06:00:48;12.90;43.30
30288;DHT22;17103;48.316;11.558;2023-04-25T06:03:13;12.80;43.10
30288;DHT22;17103;48.316;11.558;2023-04-25T06:05:42;12.80;43.70
30288;DHT22;17103;48.316;11.558;2023-04-25T06:08:09;12.70;43.40
30288;DHT22;17103;48.316;11.558;2023-04-25T06:10:35;12.60;43.40
30288;DHT22;17103;48.316;11.558;2023-04-25T06:13:01;12.60;43.90
30288;DHT22;17103;48.316;11.558;2023-04-25T06:15:26;12.50;43.80
30288;DHT22;17103;48.316;11.558;2023-04-25T06:17:52;12.40;44.10
30288;DHT22;17103;48.316;11.558;2023-04-25T06:20:18;12.30;44.40
30288;DHT22;17103;48.316;11.558;2023-04-25T06:22:45;12.20;43.70
30288;DHT22;17103;48.316;11.558;2023-04-25T06:25:10;12.10;44.30
30288;DHT22;17103;48.316;11.558;2023-04-25T06:27:36;12.00;45.00
30288;DHT22;17103;48.316;11.558;2023-04-25T06:30:01;12.00;45.20
30288;DHT22;17103;48.316;11.558;2023-04-25T06:32:27;12.00;45.70
30288;DHT22;17103;48.316;11.558;2023-04-25T06:34:55;11.90;45.70
30288;DHT22;17103;48.316;11.558;2023-04-25T06:37:20;11.90;45.20
30288;DHT22;17103;48.316;11.558;2023-04-25T06:39:46;11.90;45.60
30288;DHT22;17103;48.316;11.558;2023-04-25T06:42:12;11.90;45.90
30288;DHT22;17103;48.316;11.558;2023-04-25T06:44:37;11.90;46.60
30288;DHT22;17103;48.316;11.558;2023-04-25T06:47:03;12.00;46.70
30288;DHT22;17103;48.316;11.558;2023-04-25T06:49:28;12.00;46.90
30288;DHT22;17103;48.316;11.558;2023-04-25T06:51:54;12.00;46.70
30288;DHT22;17103;48.316;11.558;2023-04-25T06:54:19;12.00;47.20
30288;DHT22;17103;48.316;11.558;2023-04-25T06:56:45;12.00;47.10
30288;DHT22;17103;48.316;11.558;2023-04-25T06:59:11;12.00;46.60
30288;DHT22;17103;48.316;11.558;2023-04-25T07:01:37;11.90;45.80
30288;DHT22;17103;48.316;11.558;2023-04-25T07:04:02;11.90;45.50
30288;DHT22;17103;48.316;11.558;2023-04-25T07:06:28;11.80;45.60
30288;DHT22;17103;48.316;11.558;2023-04-25T07:08:54;11.80;45.40
30288;DHT22;17103;48.316;11.558;2023-04-25T07:11:21;11.70;45.20
30288;DHT22;17103;48.316;11.558;2023-04-25T07:13:46;11.70;45.80
30288;DHT22;17103;48.316;11.558;2023-04-25T07:16:12;11.60;45.90
30288;DHT22;17103;48.316;11.558;2023-04-25T07:18:37;11.70;45.90
30288;DHT22;17103;48.316;11.558;2023-04-25T07:21:03;11.50;46.10
30288;DHT22;17103;48.316;11.558;2023-04-25T07:23:29;11.50;46.60
30288;DHT22;17103;48.316;11.558;2023-04-25T07:25:55;11.50;47.00
30288;DHT22;17103;48.316;11.558;2023-04-25T07:28:21;11.50;47.10
30288;DHT22;17103;48.316;11.558;2023-04-25T07:30:47;11.40;46.90
30288;DHT22;17103;48.316;11.558;2023-04-25T07:33:12;11.40;47.10
30288;DHT22;17103;48.316;11.558;2023-04-25T07:35:38;11.40;47.10
30288;DHT22;17103;48.316;11.558;2023-04-25T07:38:04;11.40;47.30
30288;DHT22;17103;48.316;11.558;2023-04-25T07:40:32;11.70;47.50
30288;DHT22;17103;48.316;11.558;2023-04-25T07:42:57;11.40;47.20
30288;DHT22;17103;48.316;11.558;2023-04-25T07:45:23;11.50;47.70
30288;DHT22;17103;48.316;11.558;2023-04-25T07:47:49;11.50;48.20
30288;DHT22;17103;48.316;11.558;2023-04-25T07:50:15;11.50;47.90
30288;DHT22;17103;48.316;11.558;2023-04-25T07:52:41;11.60;48.10
30288;DHT22;17103;48.316;11.558;2023-04-25T07:55:06;11.70;47.90
30288;DHT22;17103;48.316;11.558;2023-04-25T07:57:32;11.70;48.00
30288;DHT22;17103;48.316;11.558;2023-04-25T07:59:58;11.70;47.80
30288;DHT22;17103;48.316;11.558;2023-04-25T08:02:23;11.70;47.40
30288;DHT22;17103;48.316;11.558;2023-04-25T08:04:51;11.80;47.70
30288;DHT22;17103;48.316;11.558;2023-04-25T08:07:17;11.80;47.60
30288;DHT22;17103;48.316;11.558;2023-04-25T08:09:42;11.80;48.00
30288;DHT22;17103;48.316;11.558;2023-04-25T08:12:08;11.90;47.90
30288;DHT22;17103;48.316;11.558;2023-04-25T08:14:34;12.00;47.80
30288;DHT22;17103;48.316;11.558;2023-04-25T08:17:03;12.00;47.90
30288;DHT22;17103;48.316;11.558;2023-04-25T08:19:29;12.10;47.60
30288;DHT22;17103;48.316;11.558;2023-04-25T08:21:56;12.20;47.30
30288;DHT22;17103;48.316;11.558;2023-04-25T08:24:22;12.20;46.60
30288;DHT22;17103;48.316;11.558;2023-04-25T08:26:48;12.30;46.60
30288;DHT22;17103;48.316;11.558;2023-04-25T08:29:14;12.30;46.40
30288;DHT22;17103;48.316;11.558;2023-04-25T08:31:40;12.40;46.10
30288;DHT22;17103;48.316;11.558;2023-04-25T08:34:07;12.40;46.00
30288;DHT22;17103;48.316;11.558;2023-04-25T08:36:32;12.40;46.00
30288;DHT22;17103;48.316;11.558;2023-04-25T08:38:58;12.80;45.80
30288;DHT22;17103;48.316;11.558;2023-04-25T08:41:25;12.50;45.20
30288;DHT22;17103;48.316;11.558;2023-04-25T08:43:53;12.40;43.90
30288;DHT22;17103;48.316;11.558;2023-04-25T08:46:21;12.50;44.00
30288;DHT22;17103;48.316;11.558;2023-04-25T08:48:48;12.60;43.80
30288;DHT22;17103;48.316;11.558;2023-04-25T08:51:24;12.60;44.00
30288;DHT22;17103;48.316;11.558;2023-04-25T08:53:51;12.60;43.50
30288;DHT22;17103;48.316;11.558;2023-04-25T08:56:17;12.70;43.40
30288;DHT22;17103;48.316;11.558;2023-04-25T08:58:47;12.70;42.70
30288;DHT22;17103;48.316;11.558;2023-04-25T09:01:13;12.80;42.80
30288;DHT22;17103;48.316;11.558;2023-04-25T09:03:39;12.80;42.50
30288;DHT22;17103;48.316;11.558;2023-04-25T09:06:05;12.80;42.60
30288;DHT22;17103;48.316;11.558;2023-04-25T09:08:30;12.90;41.50
30288;DHT22;17103;48.316;11.558;2023-04-25T09:10:56;12.90;41.50
30288;DHT22;17103;48.316;11.558;2023-04-25T09:13:27;13.00;41.90
30288;DHT22;17103;48.316;11.558;2023-04-25T09:15:57;13.00;42.10
30288;DHT22;17103;48.316;11.558;2023-04-25T09:18:27;13.20;41.70
30288;DHT22;17103;48.316;11.558;2023-04-25T09:20:58;13.20;41.80
30288;DHT22;17103;48.316;11.558;2023-04-25T09:23:29;13.30;41.70
30288;DHT22;17103;48.316;11.558;2023-04-25T09:25:55;13.40;40.80
30288;DHT22;17103;48.316;11.558;2023-04-25T09:28:25;13.80;41.20
30288;DHT22;17103;48.316;11.558;2023-04-25T09:30:57;13.50;40.80
30288;DHT22;17103;48.316;11.558;2023-04-25T09:33:33;13.60;40.10
30288;DHT22;17103;48.316;11.558;2023-04-25T09:36:09;13.60;40.10
30288;DHT22;17103;48.316;11.558;2023-04-25T09:38:41;13.70;40.60
30288;DHT22;17103;48.316;11.558;2023-04-25T09:41:08;13.70;40.50
30288;DHT22;17103;48.316;11.558;2023-04-25T09:43:35;13.80;40.80
30288;DHT22;17103;48.316;11.558;2023-04-25T09:46:01;13.90;39.90
30288;DHT22;17103;48.316;11.558;2023-04-25T09:48:28;14.00;39.00
30288;DHT22;17103;48.316;11.558;2023-04-25T09:51:10;14.10;38.80
30288;DHT22;17103;48.316;11.558;2023-04-25T09:53:42;14.10;39.50
30288;DHT22;17103;48.316;11.558;2023-04-25T09:56:10;14.20;40.30
30288;DHT22;17103;48.316;11.558;2023-04-25T09:58:37;14.20;40.20
30288;DHT22;17103;48.316;11.558;2023-04-25T10:01:07;14.20;40.60
30288;DHT22;17103;48.316;11.558;2023-04-25T10:03:35;14.20;40.40
30288;DHT22;17103;48.316;11.558;2023-04-25T10:06:02;14.10;40.50
30288;DHT22;17103;48.316;11.558;2023-04-25T10:08:38;14.10;40.60
30288;DHT22;17103;48.316;11.558;2023-04-25T10:11:06;14.10;40.40
30288;DHT22;17103;48.316;11.558;2023-04-25T10:13:33;14.10;39.60
30288;DHT22;17103;48.316;11.558;2023-04-25T10:16:01;14.10;39.50
30288;DHT22;17103;48.316;11.558;2023-04-25T10:18:28;14.50;38.90
30288;DHT22;17103;48.316;11.558;2023-04-25T10:20:56;14.10;37.60
30288;DHT22;17103;48.316;11.558;2023-04-25T10:23:23;14.10;38.20
30288;DHT22;17103;48.316;11.558;2023-04-25T10:25:50;14.20;38.90
30288;DHT22;17103;48.316;11.558;2023-04-25T10:28:17;14.30;38.50
30288;DHT22;17103;48.316;11.558;2023-04-25T10:30:59;14.50;38.80
30288;DHT22;17103;48.316;11.558;2023-04-25T10:33:39;14.50;38.60
30288;DHT22;17103;48.316;11.558;2023-04-25T10:36:14;14.70;38.60
30288;DHT22;17103;48.316;11.558;2023-04-25T10:38:42;14.30;38.40
30288;DHT22;17103;48.316;11.558;2023-04-25T10:41:11;14.30;39.80
30288;DHT22;17103;48.316;11.558;2023-04-25T10:43:43;14.00;40.20
30288;DHT22;17103;48.316;11.558;2023-04-25T10:46:28;13.80;40.80
30288;DHT22;17103;48.316;11.558;2023-04-25T10:51:22;13.70;40.90
30288;DHT22;17103;48.316;11.558;2023-04-25T10:56:21;13.60;41.80
30288;DHT22;17103;48.316;11.558;2023-04-25T10:58:48;13.50;42.60
30288;DHT22;17103;48.316;11.558;2023-04-25T11:01:15;13.50;42.90
30288;DHT22;17103;48.316;11.558;2023-04-25T11:03:42;13.60;43.30
30288;DHT22;17103;48.316;11.558;2023-04-25T11:06:23;13.70;43.10
30288;DHT22;17103;48.316;11.558;2023-04-25T11:08:53;13.50;43.30
30288;DHT22;17103;48.316;11.558;2023-04-25T11:11:19;13.40;43.60
30288;DHT22;17103;48.316;11.558;2023-04-25T11:13:49;13.30;43.30
30288;DHT22;17103;48.316;11.558;2023-04-25T11:16:16;13.10;42.20
30288;DHT22;17103;48.316;11.558;2023-04-25T11:18:44;12.90;41.90
30288;DHT22;17103;48.316;11.558;2023-04-25T11:21:11;12.70;42.10
30288;DHT22;17103;48.316;11.558;2023-04-25T11:23:37;12.50;43.00
30288;DHT22;17103;48.316;11.558;2023-04-25T11:26:03;12.20;43.40
30288;DHT22;17103;48.316;11.558;2023-04-25T11:28:29;12.20;43.70
30288;DHT22;17103;48.316;11.558;2023-04-25T11:30:55;11.80;44.40
30288;DHT22;17103;48.316;11.558;2023-04-25T11:33:28;11.60;45.50
30288;DHT22;17103;48.316;11.558;2023-04-25T11:35:54;11.40;45.20
30288;DHT22;17103;48.316;11.558;2023-04-25T11:38:22;11.40;45.90
30288;DHT22;17103;48.316;11.558;2023-04-25T11:40:57;11.20;46.60
30288;DHT22;17103;48.316;11.558;2023-04-25T11:43:23;11.10;47.20
30288;DHT22;17103;48.316;11.558;2023-04-25T11:45:49;11.10;47.90
30288;DHT22;17103;48.316;11.558;2023-04-25T11:48:16;11.00;48.20
30288;DHT22;17103;48.316;11.558;2023-04-25T11:50:42;11.00;49.80
30288;DHT22;17103;48.316;11.558;2023-04-25T11:53:07;11.00;49.90
30288;DHT22;17103;48.316;11.558;2023-04-25T11:55:34;11.00;49.80
30288;DHT22;17103;48.316;11.558;2023-04-25T11:58:00;11.10;50.20
30288;DHT22;17103;48.316;11.558;2023-04-25T12:00:27;11.10;50.30
30288;DHT22;17103;48.316;11.558;2023-04-25T12:02:54;11.20;50.30
30288;DHT22;17103;48.316;11.558;2023-04-25T12:05:24;11.20;50.10
30288;DHT22;17103;48.316;11.558;2023-04-25T12:07:50;11.30;50.30
30288;DHT22;17103;48.316;11.558;2023-04-25T12:10:17;11.40;50.10
30288;DHT22;17103;48.316;11.558;2023-04-25T12:12:46;11.50;49.70
30288;DHT22;17103;48.316;11.558;2023-04-25T12:15:22;11.60;50.10
30288;DHT22;17103;48.316;11.558;2023-04-25T12:17:51;11.70;49.60
30288;DHT22;17103;48.316;11.558;2023-04-25T12:20:20;11.80;48.40
30288;DHT22;17103;48.316;11.558;2023-04-25T12:22:49;11.90;48.60
30288;DHT22;17103;48.316;11.558;2023-04-25T12:25:38;11.90;48.80
30288;DHT22;17103;48.316;11.558;2023-04-25T12:28:22;12.00;49.30
30288;DHT22;17103;48.316;11.558;2023-04-25T12:33:22;12.10;48.10
30288;DHT22;17103;48.316;11.558;2023-04-25T12:35:47;12.20;48.50
30288;DHT22;17103;48.316;11.558;2023-04-25T12:38:26;12.10;48.30
30288;DHT22;17103;48.316;11.558;2023-04-25T12:40:53;12.00;48.70
30288;DHT22;17103;48.316;11.558;2023-04-25T12:43:19;12.00;48.20
30288;DHT22;17103;48.316;11.558;2023-04-25T12:45:50;11.80;48.00
30288;DHT22;17103;48.316;11.558;2023-04-25T12:48:19;11.60;48.20
30288;DHT22;17103;48.316;11.558;2023-04-25T12:50:46;11.50;49.40
30288;DHT22;17103;48.316;11.558;2023-04-25T12:53:18;11.30;49.10
30288;DHT22;17103;48.316;11.558;2023-04-25T12:55:44;11.10;49.80
30288;DHT22;17103;48.316;11.558;2023-04-25T12:58:18;11.00;50.50
30288;DHT22;17103;48.316;11.558;2023-04-25T13:00:44;10.90;50.60
30288;DHT22;17103;48.316;11.558;2023-04-25T13:03:10;10.70;50.70
30288;DHT22;17103;48.316;11.558;2023-04-25T13:05:36;10.60;51.70
30288;DHT22;17103;48.316;11.558;2023-04-25T13:08:02;10.50;51.70
30288;DHT22;17103;48.316;11.558;2023-04-25T13:10:28;10.50;52.00
30288;DHT22;17103;48.316;11.558;2023-04-25T13:12:54;10.40;51.70
30288;DHT22;17103;48.316;11.558;2023-04-25T13:15:20;10.40;52.00
30288;DHT22;17103;48.316;11.558;2023-04-25T13:17:45;10.10;52.80
30288;DHT22;17103;48.316;11.558;2023-04-25T13:20:11;10.30;53.50
30288;DHT22;17103;48.316;11.558;2023-04-25T13:22:39;10.20;53.40
30288;DHT22;17103;48.316;11.558;2023-04-25T13:25:07;10.20;52.70
30288;DHT22;17103;48.316;11.558;2023-04-25T13:27:34;10.30;52.20
30288;DHT22;17103;48.316;11.558;2023-04-25T13:30:03;10.30;52.50
30288;DHT22;17103;48.316;11.558;2023-04-25T13:32:36;10.30;52.30
30288;DHT22;17103;48.316;11.558;2023-04-25T13:35:20;10.20;51.60
30288;DHT22;17103;48.316;11.558;2023-04-25T13:37:46;10.20;51.80
30288;DHT22;17103;48.316;11.558;2023-04-25T13:40:11;10.30;51.80
30288;DHT22;17103;48.316;11.558;2023-04-25T13:42:38;10.30;51.50
30288;DHT22;17103;48.316;11.558;2023-04-25T13:45:04;10.30;51.70
30288;DHT22;17103;48.316;11.558;2023-04-25T13:47:30;10.40;51.50
30288;DHT22;17103;48.316;11.558;2023-04-25T13:49:57;10.40;51.80
30288;DHT22;17103;48.316;11.558;2023-04-25T13:52:23;10.40;51.50
30288;DHT22;17103;48.316;11.558;2023-04-25T13:54:52;10.60;51.80
30288;DHT22;17103;48.316;11.558;2023-04-25T13:57:18;10.40;51.80
30288;DHT22;17103;48.316;11.558;2023-04-25T13:59:46;10.50;51.70
30288;DHT22;17103;48.316;11.558;2023-04-25T14:02:12;10.40;52.30
30288;DHT22;17103;48.316;11.558;2023-04-25T14:04:37;11.30;53.10
30288;DHT22;17103;48.316;11.558;2023-04-25T14:07:03;10.50;52.30
30288;DHT22;17103;48.316;11.558;2023-04-25T14:09:31;10.50;53.10
30288;DHT22;17103;48.316;11.558;2023-04-25T14:11:56;10.60;53.50
30288;DHT22;17103;48.316;11.558;2023-04-25T14:14:22;10.60;53.40
30288;DHT22;17103;48.316;11.558;2023-04-25T14:16:49;10.60;53.70
30288;DHT22;17103;48.316;11.558;2023-04-25T14:19:16;10.60;53.50
30288;DHT22;17103;48.316;11.558;2023-04-25T14:21:42;10.60;53.30
30288;DHT22;17103;48.316;11.558;2023-04-25T14:24:08;10.60;52.80
30288;DHT22;17103;48.316;11.558;2023-04-25T14:26:34;10.60;53.30
30288;DHT22;17103;48.316;11.558;2023-04-25T14:29:07;10.60;53.20
30288;DHT22;17103;48.316;11.558;2023-04-25T14:31:33;10.70;53.10
30288;DHT22;17103;48.316;11.558;2023-04-25T14:34:00;10.70;53.50
30288;DHT22;17103;48.316;11.558;2023-04-25T14:36:27;10.70;53.10
30288;DHT22;17103;48.316;11.558;2023-04-25T14:38:53;10.80;53.20
30288;DHT22;17103;48.316;11.558;2023-04-25T14:41:19;10.80;52.70
30288;DHT22;17103;48.316;11.558;2023-04-25T14:43:44;10.90;52.50
30288;DHT22;17103;48.316;11.558;2023-04-25T14:46:11;11.00;52.30
30288;DHT22;17103;48.316;11.558;2023-04-25T14:48:39;11.00;52.40
30288;DHT22;17103;48.316;11.558;2023-04-25T14:51:05;11.00;52.70
30288;DHT22;17103;48.316;11.558;2023-04-25T14:53:31;11.10;52.30
30288;DHT22;17103;48.316;11.558;2023-04-25T14:55:57;11.10;52.40
30288;DHT22;17103;48.316;11.558;2023-04-25T14:58:23;11.70;53.00
30288;DHT22;17103;48.316;11.558;2023-04-25T15:00:49;11.20;52.40
30288;DHT22;17103;48.316;11.558;2023-04-25T15:03:14;11.20;52.70
30288;DHT22;17103;48.316;11.558;2023-04-25T15:05:42;11.10;52.40
30288;DHT22;17103;48.316;11.558;2023-04-25T15:08:09;11.20;53.40
30288;DHT22;17103;48.316;11.558;2023-04-25T15:10:35;11.10;51.60
30288;DHT22;17103;48.316;11.558;2023-04-25T15:13:01;11.10;52.00
30288;DHT22;17103;48.316;11.558;2023-04-25T15:15:28;12.00;53.20
30288;DHT22;17103;48.316;11.558;2023-04-25T15:17:54;11.00;52.10
30288;DHT22;17103;48.316;11.558;2023-04-25T15:20:21;10.90;52.00
30288;DHT22;17103;48.316;11.558;2023-04-25T15:22:48;10.90;52.30